createdAt,value
2022-10-01T00:01:05.079Z,90.83
2022-10-01T00:03:38.427Z,91.28
2022-10-01T00:06:14.006Z,91.58
2022-10-01T00:08:45.861Z,91.33
2022-10-01T00:11:19.299Z,91.28
2022-10-01T00:13:50.417Z,91.66
2022-10-01T00:16:23.275Z,91.59
2022-10-01T00:18:53.850Z,91.36
2022-10-01T00:21:29.301Z,91.62
2022-10-01T00:24:01.313Z,91.49
2022-10-01T00:26:35.073Z,91.73
2022-10-01T00:29:07.941Z,91.38
2022-10-01T00:31:38.572Z,91.52
2022-10-01T00:34:09.396Z,91.98
2022-10-01T00:36:45.234Z,91.47
2022-10-01T00:39:15.918Z,91.72
2022-10-01T00:41:46.730Z,92.27
2022-10-01T00:44:37.261Z,92.18
2022-10-01T00:47:21.520Z,91.81
2022-10-01T00:49:55.410Z,92.28
2022-10-01T00:52:34.880Z,92.37
2022-10-01T00:55:12.033Z,92.17
2022-10-01T00:57:43.748Z,92.02
2022-10-01T01:00:16.560Z,92.44
2022-10-01T01:02:47.283Z,92.27
2022-10-01T01:05:17.599Z,92.44
2022-10-01T01:07:53.122Z,92.39
2022-10-01T01:10:33.357Z,92.29
2022-10-01T01:13:14.302Z,92.72
2022-10-01T01:15:50.767Z,92.47
2022-10-01T01:18:25.997Z,92.83
2022-10-01T01:21:14.965Z,92.81
2022-10-01T01:24:23.389Z,92.63
2022-10-01T01:27:06.992Z,92.92
2022-10-01T01:29:45.132Z,92.82
2022-10-01T01:32:22.464Z,92.56
2022-10-01T01:34:55.474Z,92.59
2022-10-01T01:37:32.064Z,92.40
2022-10-01T01:40:05.506Z,92.43
2022-10-01T01:42:40.341Z,92.72
2022-10-01T01:45:18.775Z,92.64
2022-10-01T01:47:49.576Z,92.44
2022-10-01T01:50:20.806Z,92.93
2022-10-01T01:52:51.716Z,92.73
2022-10-01T01:55:22.803Z,92.83
2022-10-01T01:57:53.374Z,92.70
2022-10-01T02:00:26.625Z,93.01
2022-10-01T02:02:59.629Z,92.79
2022-10-01T02:05:33.482Z,93.04
2022-10-01T02:08:28.121Z,93.57
2022-10-01T02:11:21.671Z,93.80
2022-10-01T02:14:04.964Z,93.49
2022-10-01T02:16:51.054Z,92.52
2022-10-01T02:19:28.206Z,93.14
2022-10-01T02:22:03.325Z,92.78
2022-10-01T02:24:42.341Z,92.81
2022-10-01T02:27:16.683Z,93.08
2022-10-01T02:29:48.711Z,93.47
2022-10-01T02:32:22.476Z,92.25
2022-10-01T02:34:53.627Z,91.95
2022-10-01T02:37:28.371Z,92.24
2022-10-01T02:40:00.825Z,92.21
2022-10-01T02:42:33.066Z,92.60
2022-10-01T02:45:06.181Z,92.45
2022-10-01T02:47:44.610Z,92.69
2022-10-01T02:50:15.925Z,92.97
2022-10-01T02:52:50.836Z,92.97
2022-10-01T02:55:23.260Z,92.65
2022-10-01T02:57:53.670Z,92.82
2022-10-01T03:00:24.438Z,93.01
2022-10-01T03:02:57.404Z,93.07
2022-10-01T03:05:27.578Z,92.48
2022-10-01T03:07:57.698Z,92.89
2022-10-01T03:10:29.295Z,92.54
2022-10-01T03:13:01.812Z,92.48
2022-10-01T03:15:32.087Z,92.98
2022-10-01T03:18:05.109Z,92.91
2022-10-01T03:20:35.292Z,93.17
2022-10-01T03:23:05.429Z,93.22
2022-10-01T03:25:36.517Z,92.74
2022-10-01T03:28:06.800Z,92.94
2022-10-01T03:30:36.957Z,92.54
2022-10-01T03:33:09.689Z,92.33
2022-10-01T03:35:39.875Z,91.82
2022-10-01T03:38:10.253Z,92.22
2022-10-01T03:40:40.376Z,92.39
2022-10-01T03:43:10.525Z,92.65
2022-10-01T03:45:40.707Z,92.85
2022-10-01T03:48:13.750Z,92.56
2022-10-01T03:50:43.987Z,92.49
2022-10-01T03:53:14.134Z,92.24
2022-10-01T03:55:44.330Z,92.76
2022-10-01T03:58:14.453Z,92.38
2022-10-01T04:00:47.205Z,92.53
2022-10-01T04:03:20.806Z,92.80
2022-10-01T04:05:51.162Z,93.00
2022-10-01T04:08:24.426Z,93.04
2022-10-01T04:10:54.778Z,92.69
2022-10-01T04:13:24.945Z,93.43
2022-10-01T04:15:55.073Z,93.05
2022-10-01T04:18:27.861Z,92.95
2022-10-01T04:20:58.036Z,93.16
2022-10-01T04:23:31.886Z,93.23
2022-10-01T04:26:03.798Z,93.30
2022-10-01T04:28:35.259Z,93.15
2022-10-01T04:31:18.012Z,93.04
2022-10-01T04:33:51.351Z,93.10
2022-10-01T04:36:21.511Z,93.13
2022-10-01T04:38:57.994Z,93.36
2022-10-01T04:41:31.661Z,93.04
2022-10-01T04:44:02.494Z,93.20
2022-10-01T04:46:32.909Z,93.21
2022-10-01T04:49:05.801Z,93.47
2022-10-01T04:51:36.329Z,93.34
2022-10-01T04:54:06.800Z,93.78
2022-10-01T04:56:36.933Z,93.35
2022-10-01T04:59:07.089Z,93.65
2022-10-01T05:01:37.879Z,93.59
2022-10-01T05:04:11.578Z,93.06
2022-10-01T05:06:41.950Z,93.20
2022-10-01T05:09:12.150Z,93.45
2022-10-01T05:11:42.313Z,93.47
2022-10-01T05:14:15.411Z,93.40
2022-10-01T05:16:45.701Z,92.98
2022-10-01T05:19:18.538Z,92.88
2022-10-01T05:21:48.695Z,93.10
2022-10-01T05:24:18.938Z,92.67
2022-10-01T05:26:49.103Z,93.09
2022-10-01T05:29:19.463Z,93.32
2022-10-01T05:31:50.343Z,92.91
2022-10-01T05:34:23.242Z,93.21
2022-10-01T05:36:53.424Z,93.02
2022-10-01T05:39:23.547Z,93.27
2022-10-01T05:41:55.599Z,93.18
2022-10-01T05:44:26.194Z,92.52
2022-10-01T05:46:56.829Z,93.08
2022-10-01T05:49:29.553Z,92.54
2022-10-01T05:52:01.131Z,92.47
2022-10-01T05:54:36.294Z,92.50
2022-10-01T05:57:08.080Z,92.01
2022-10-01T05:59:38.695Z,92.08
2022-10-01T06:02:12.865Z,91.76
2022-10-01T06:04:45.900Z,91.82
2022-10-01T06:07:16.230Z,91.94
2022-10-01T06:09:46.952Z,91.88
2022-10-01T06:12:19.788Z,91.31
2022-10-01T06:14:50.221Z,91.66
2022-10-01T06:17:20.448Z,91.44
2022-10-01T06:19:54.361Z,91.17
2022-10-01T06:22:24.441Z,91.01
2022-10-01T06:24:56.668Z,91.59
2022-10-01T06:27:26.975Z,91.43
2022-10-01T06:29:57.226Z,91.61
2022-10-01T06:32:29.604Z,91.38
2022-10-01T06:35:04.622Z,91.67
2022-10-01T06:37:34.754Z,91.85
2022-10-01T06:40:04.950Z,91.42
2022-10-01T06:42:36.055Z,91.75
2022-10-01T06:45:06.715Z,91.39
2022-10-01T06:47:38.034Z,91.42
2022-10-01T06:50:11.960Z,91.62
2022-10-01T06:52:55.078Z,91.45
2022-10-01T06:55:29.191Z,91.58
2022-10-01T06:58:00.632Z,91.29
2022-10-01T07:00:32.526Z,91.40
2022-10-01T07:03:06.586Z,91.90
2022-10-01T07:05:39.643Z,91.95
2022-10-01T07:08:10.824Z,91.59
2022-10-01T07:10:41.065Z,91.38
2022-10-01T07:13:12.281Z,91.02
2022-10-01T07:15:43.343Z,89.83
2022-10-01T07:18:14.669Z,88.89
2022-10-01T07:20:50.045Z,88.79
2022-10-01T07:23:22.152Z,88.72
2022-10-01T07:25:52.396Z,88.58
2022-10-01T07:28:26.211Z,88.81
2022-10-01T07:31:03.820Z,88.58
2022-10-01T07:33:33.923Z,88.23
2022-10-01T07:36:09.009Z,87.79
2022-10-01T07:38:39.300Z,87.76
2022-10-01T07:41:09.438Z,87.43
2022-10-01T07:43:41.636Z,87.09
2022-10-01T07:46:11.756Z,86.46
2022-10-01T07:48:42.284Z,86.73
2022-10-01T07:51:15.183Z,86.48
2022-10-01T07:53:45.948Z,86.67
2022-10-01T07:56:16.149Z,86.56
2022-10-01T07:58:46.427Z,86.55
2022-10-01T08:01:17.369Z,86.13
2022-10-01T08:03:47.582Z,86.32
2022-10-01T08:06:24.686Z,85.49
2022-10-01T08:08:55.807Z,85.27
2022-10-01T08:11:26.035Z,84.69
2022-10-01T08:13:57.349Z,84.94
2022-10-01T08:16:33.644Z,84.58
2022-10-01T08:19:04.181Z,84.43
2022-10-01T08:21:38.215Z,84.40
2022-10-01T08:24:08.924Z,84.09
2022-10-01T08:26:39.342Z,84.11
2022-10-01T08:29:11.630Z,84.02
2022-10-01T08:31:45.192Z,83.80
2022-10-01T08:34:15.357Z,83.70
2022-10-01T08:36:53.896Z,81.84
2022-10-01T08:39:24.025Z,82.39
2022-10-01T08:42:01.318Z,83.26
2022-10-01T08:44:37.601Z,83.97
2022-10-01T08:47:14.923Z,83.98
2022-10-01T08:49:49.253Z,83.37
2022-10-01T08:52:26.266Z,83.47
2022-10-01T08:55:00.961Z,82.75
2022-10-01T08:57:35.312Z,82.43
2022-10-01T09:00:08.678Z,82.75
2022-10-01T09:02:42.422Z,82.48
2022-10-01T09:05:24.938Z,82.63
2022-10-01T09:08:08.305Z,83.14
2022-10-01T09:10:47.166Z,82.58
2022-10-01T09:13:49.378Z,84.27
2022-10-01T09:16:27.642Z,84.56
2022-10-01T09:19:09.282Z,84.17
2022-10-01T09:21:50.776Z,84.84
2022-10-01T09:24:40.810Z,85.47
2022-10-01T09:27:16.708Z,84.94
2022-10-01T09:29:54.597Z,84.90
2022-10-01T09:32:29.372Z,84.77
2022-10-01T09:35:04.686Z,84.46
2022-10-01T09:37:44.476Z,84.28
2022-10-01T09:40:24.398Z,84.06
2022-10-01T09:42:54.951Z,84.64
2022-10-01T09:45:27.211Z,84.74
2022-10-01T09:48:05.381Z,84.56
2022-10-01T09:50:41.847Z,84.11
2022-10-01T09:53:20.717Z,83.50
2022-10-01T09:55:57.262Z,83.46
2022-10-01T09:58:30.818Z,83.96
2022-10-01T10:01:01.194Z,84.29
2022-10-01T10:03:35.376Z,84.18
2022-10-01T10:06:08.302Z,84.45
2022-10-01T10:08:41.477Z,85.16
2022-10-01T10:11:23.413Z,85.21
2022-10-01T10:13:55.881Z,85.41
2022-10-01T10:16:30.205Z,85.54
2022-10-01T10:19:03.036Z,85.75
2022-10-01T10:21:35.982Z,86.04
2022-10-01T10:24:08.443Z,86.34
2022-10-01T10:26:43.526Z,85.86
2022-10-01T10:29:30.609Z,85.64
2022-10-01T10:32:02.280Z,85.76
2022-10-01T10:34:35.690Z,85.77
2022-10-01T10:37:09.390Z,85.35
2022-10-01T10:39:42.113Z,85.19
2022-10-01T10:42:19.020Z,84.53
2022-10-01T10:44:51.792Z,84.32
2022-10-01T10:47:24.536Z,84.25
2022-10-01T10:49:57.136Z,84.98
2022-10-01T10:52:33.436Z,84.40
2022-10-01T10:55:21.827Z,82.73
2022-10-01T10:57:57.712Z,81.34
2022-10-01T11:00:29.932Z,81.43
2022-10-01T11:03:04.246Z,80.86
2022-10-01T11:05:37.656Z,80.88
2022-10-01T11:08:16.880Z,79.17
2022-10-01T11:10:55.412Z,78.68
2022-10-01T11:13:46.302Z,79.07
2022-10-01T11:16:40.544Z,79.44
2022-10-01T11:19:26.493Z,77.91
2022-10-01T11:22:18.513Z,78.40
2022-10-01T11:25:11.716Z,76.04
2022-10-01T11:27:51.728Z,74.80
2022-10-01T11:30:27.862Z,75.51
2022-10-01T11:33:04.468Z,75.70
2022-10-01T11:35:50.628Z,74.35
2022-10-01T11:38:48.454Z,74.34
2022-10-01T11:41:31.786Z,74.31
2022-10-01T11:44:07.818Z,73.15
2022-10-01T11:46:53.670Z,72.88
2022-10-01T11:49:47.653Z,72.42
2022-10-01T11:52:41.120Z,71.59
2022-10-01T11:55:33.179Z,70.71
2022-10-01T11:58:22.155Z,71.01
2022-10-01T12:01:02.928Z,71.55
2022-10-01T12:03:46.498Z,70.97
2022-10-01T12:06:23.155Z,70.63
2022-10-01T12:09:02.368Z,72.04
2022-10-01T12:11:38.802Z,72.02
2022-10-01T12:14:14.461Z,72.11
2022-10-01T12:16:50.528Z,70.31
2022-10-01T12:19:27.641Z,68.91
2022-10-01T12:22:02.644Z,67.35
2022-10-01T12:24:37.366Z,68.37
2022-10-01T12:27:31.064Z,69.57
2022-10-01T12:30:06.064Z,67.42
2022-10-01T12:32:57.197Z,68.47
2022-10-01T12:35:42.600Z,68.26
2022-10-01T12:38:26.211Z,66.99
2022-10-01T12:41:06.430Z,68.29
2022-10-01T12:44:07.083Z,67.16
2022-10-01T12:46:42.282Z,66.14
2022-10-01T12:49:22.651Z,66.39
2022-10-01T12:52:03.617Z,65.44
2022-10-01T12:55:00.563Z,66.56
2022-10-01T12:57:43.089Z,67.03
2022-10-01T13:00:18.366Z,68.21
2022-10-01T13:03:29.925Z,68.56
2022-10-01T13:06:17.736Z,68.38
2022-10-01T13:09:12.728Z,67.09
2022-10-01T13:12:03.830Z,66.03
2022-10-01T13:14:36.009Z,65.99
2022-10-01T13:17:15.039Z,66.39
2022-10-01T13:19:54.225Z,66.75
2022-10-01T13:22:37.403Z,66.92
2022-10-01T13:25:26.813Z,66.71
2022-10-01T13:28:02.504Z,66.53
2022-10-01T13:30:47.917Z,65.72
2022-10-01T13:33:27.328Z,67.16
2022-10-01T13:36:00.340Z,67.26
2022-10-01T13:38:33.835Z,68.31
2022-10-01T13:41:09.825Z,67.85
2022-10-01T13:43:44.218Z,68.30
2022-10-01T13:46:18.329Z,67.57
2022-10-01T13:48:51.313Z,68.38
2022-10-01T13:51:22.007Z,68.95
2022-10-01T13:54:01.392Z,68.02
2022-10-01T13:56:39.819Z,69.15
2022-10-01T13:59:35.944Z,69.92
2022-10-01T14:02:23.482Z,69.69
2022-10-01T14:04:54.513Z,70.66
2022-10-01T14:07:28.198Z,71.68
2022-10-01T14:10:03.790Z,71.55
2022-10-01T14:12:51.734Z,72.24
2022-10-01T14:15:38.211Z,72.83
2022-10-01T14:18:13.817Z,73.14
2022-10-01T14:20:55.828Z,73.24
2022-10-01T14:23:32.441Z,72.50
2022-10-01T14:26:10.062Z,72.87
2022-10-01T14:28:59.391Z,72.98
2022-10-01T14:31:40.459Z,73.46
2022-10-01T14:34:23.271Z,73.60
2022-10-01T14:36:56.313Z,73.86
2022-10-01T14:39:29.325Z,73.95
2022-10-01T14:42:01.254Z,74.42
2022-10-01T14:44:40.075Z,74.68
2022-10-01T14:47:22.017Z,74.68
2022-10-01T14:49:54.254Z,75.67
2022-10-01T14:52:26.683Z,75.35
2022-10-01T14:55:02.344Z,75.83
2022-10-01T14:57:36.594Z,76.33
2022-10-01T15:00:16.500Z,76.36
2022-10-01T15:02:52.065Z,77.27
2022-10-01T15:05:26.155Z,77.43
2022-10-01T15:07:56.453Z,77.59
2022-10-01T15:10:30.507Z,78.01
2022-10-01T15:13:00.745Z,78.20
2022-10-01T15:15:37.373Z,78.92
2022-10-01T15:18:08.144Z,79.04
2022-10-01T15:20:39.202Z,79.52
2022-10-01T15:23:09.503Z,79.62
2022-10-01T15:25:42.369Z,79.86
2022-10-01T15:28:17.545Z,80.29
2022-10-01T15:30:50.632Z,80.62
2022-10-01T15:33:29.720Z,80.36
2022-10-01T15:36:02.194Z,80.91
2022-10-01T15:38:35.025Z,81.18
2022-10-01T15:41:30.641Z,81.86
2022-10-01T15:44:01.563Z,82.42
2022-10-01T15:46:36.502Z,82.64
2022-10-01T15:49:27.785Z,83.26
2022-10-01T15:52:14.525Z,83.55
2022-10-01T15:54:50.696Z,83.77
2022-10-01T15:57:23.496Z,83.87
2022-10-01T15:59:57.953Z,83.88
2022-10-01T16:02:33.940Z,84.08
2022-10-01T16:05:09.152Z,84.54
2022-10-01T16:07:40.460Z,84.56
2022-10-01T16:10:28.636Z,85.16
2022-10-01T16:12:59.012Z,84.96
2022-10-01T16:15:31.644Z,85.47
2022-10-01T16:18:05.779Z,85.28
2022-10-01T16:20:39.739Z,85.95
2022-10-01T16:23:37.875Z,86.24
2022-10-01T16:26:35.063Z,86.56
2022-10-01T16:29:09.192Z,86.63
2022-10-01T16:31:47.548Z,86.91
2022-10-01T16:34:22.062Z,87.59
2022-10-01T16:36:52.389Z,87.73
2022-10-01T16:39:26.101Z,87.72
2022-10-01T16:42:12.363Z,87.81
2022-10-01T16:44:50.095Z,88.17
2022-10-01T16:47:20.328Z,87.73
2022-10-01T16:49:54.452Z,88.39
2022-10-01T16:52:24.754Z,88.58
2022-10-01T16:54:54.853Z,89.04
2022-10-01T16:57:25.049Z,88.77
2022-10-01T16:59:55.155Z,89.15
2022-10-01T17:02:25.400Z,89.15
2022-10-01T17:04:58.203Z,88.59
2022-10-01T17:07:29.263Z,87.97
2022-10-01T17:10:00.116Z,87.68
2022-10-01T17:12:30.269Z,88.38
2022-10-01T17:15:00.404Z,88.52
2022-10-01T17:17:31.360Z,88.61
2022-10-01T17:20:04.279Z,87.39
2022-10-01T17:22:34.613Z,88.29
2022-10-01T17:25:04.813Z,88.27
2022-10-01T17:27:35.066Z,88.44
2022-10-01T17:30:05.390Z,88.77
2022-10-01T17:32:37.344Z,88.77
2022-10-01T17:35:11.736Z,89.05
2022-10-01T17:37:43.148Z,89.14
2022-10-01T17:40:14.522Z,88.88
2022-10-01T17:42:44.897Z,88.93
2022-10-01T17:45:19.780Z,89.25
2022-10-01T17:47:51.947Z,89.01
2022-10-01T17:50:30.417Z,88.78
2022-10-01T17:53:01.579Z,88.22
2022-10-01T17:55:33.940Z,87.68
2022-10-01T17:58:04.344Z,88.14
2022-10-01T18:00:34.570Z,87.71
2022-10-01T18:03:06.968Z,87.34
2022-10-01T18:05:42.360Z,87.86
2022-10-01T18:08:13.652Z,87.91
2022-10-01T18:10:43.850Z,87.42
2022-10-01T18:13:14.085Z,87.22
2022-10-01T18:15:44.230Z,87.12
2022-10-01T18:19:45.714Z,85.87
2022-10-01T18:21:08.996Z,83.30
2022-10-01T18:23:39.561Z,81.33
2022-10-01T18:26:11.187Z,80.51
2022-10-01T18:28:41.679Z,79.50
2022-10-01T18:31:24.397Z,78.38
2022-10-01T18:33:57.117Z,78.34
2022-10-01T18:36:42.540Z,78.79
2022-10-01T18:39:20.568Z,79.20
2022-10-01T18:41:55.441Z,79.80
2022-10-01T18:44:26.734Z,80.83
2022-10-01T18:47:16.843Z,81.09
2022-10-01T18:50:14.634Z,81.57
2022-10-01T18:53:01.203Z,80.79
2022-10-01T18:55:52.843Z,80.24
2022-10-01T18:58:41.946Z,80.29
2022-10-01T19:01:23.945Z,80.35
2022-10-01T19:04:15.079Z,79.66
2022-10-01T19:07:05.900Z,80.21
2022-10-01T19:09:48.155Z,80.10
2022-10-01T19:12:33.413Z,80.70
2022-10-01T19:15:17.170Z,81.08
2022-10-01T19:18:14.686Z,81.08
2022-10-01T19:20:53.651Z,81.29
2022-10-01T19:23:39.401Z,81.00
2022-10-01T19:26:19.528Z,80.24
2022-10-01T19:29:04.457Z,80.70
2022-10-01T19:31:43.244Z,79.65
2022-10-01T19:34:20.432Z,79.74
2022-10-01T19:36:57.500Z,79.70
2022-10-01T19:39:30.099Z,79.47
2022-10-01T19:42:06.630Z,79.55
2022-10-01T19:44:44.423Z,79.35
2022-10-01T19:47:34.634Z,79.55
2022-10-01T19:50:15.252Z,79.65
2022-10-01T19:52:51.544Z,80.07
2022-10-01T19:55:25.790Z,79.74
2022-10-01T19:57:59.552Z,79.53
2022-10-01T20:00:29.786Z,79.44
2022-10-01T20:03:11.982Z,79.94
2022-10-01T20:05:47.731Z,80.34
2022-10-01T20:08:25.130Z,80.66
2022-10-01T20:10:57.984Z,80.22
2022-10-01T20:14:00.402Z,80.18
2022-10-01T20:16:40.955Z,80.52
2022-10-01T20:19:20.332Z,80.81
2022-10-01T20:22:03.291Z,81.07
2022-10-01T20:24:44.568Z,80.84
2022-10-01T20:27:25.207Z,80.51
2022-10-01T20:30:07.348Z,79.72
2022-10-01T20:32:45.379Z,79.86
2022-10-01T20:35:27.537Z,80.23
2022-10-01T20:38:07.041Z,80.06
2022-10-01T20:40:43.285Z,80.53
2022-10-01T20:43:19.307Z,80.56
2022-10-01T20:45:55.443Z,79.31
2022-10-01T20:48:30.453Z,78.75
2022-10-01T20:51:06.821Z,78.09
2022-10-01T20:53:42.029Z,77.63
2022-10-01T20:56:19.359Z,77.56
2022-10-01T20:58:53.788Z,76.89
2022-10-01T21:01:30.371Z,76.02
2022-10-01T21:04:06.486Z,76.14
2022-10-01T21:06:44.571Z,76.25
2022-10-01T21:09:24.626Z,76.88
2022-10-01T21:12:00.143Z,76.66
2022-10-01T21:14:36.889Z,77.38
2022-10-01T21:17:27.290Z,77.26
2022-10-01T21:20:11.670Z,77.76
2022-10-01T21:22:57.018Z,77.52
2022-10-01T21:25:38.725Z,78.57
2022-10-01T21:28:25.673Z,78.33
2022-10-01T21:31:07.498Z,78.29
2022-10-01T21:33:47.812Z,78.85
2022-10-01T21:36:23.250Z,78.87
2022-10-01T21:38:58.342Z,78.66
2022-10-01T21:41:48.279Z,78.48
2022-10-01T21:44:41.743Z,78.64
2022-10-01T21:47:21.087Z,78.74
2022-10-01T21:50:05.260Z,78.51
2022-10-01T21:52:47.435Z,79.06
2022-10-01T21:55:42.629Z,78.51
2022-10-01T21:58:28.220Z,78.16
2022-10-01T22:01:11.102Z,78.72
2022-10-01T22:03:50.947Z,79.00
2022-10-01T22:06:32.070Z,79.37
2022-10-01T22:09:14.632Z,79.49
2022-10-01T22:11:56.343Z,79.26
2022-10-01T22:14:27.051Z,79.46
2022-10-01T22:17:00.132Z,79.64
2022-10-01T22:19:32.583Z,79.09
2022-10-01T22:22:11.374Z,79.21
2022-10-01T22:24:46.686Z,79.37
2022-10-01T22:27:23.051Z,79.52
2022-10-01T22:29:58.200Z,79.66
2022-10-01T22:32:36.021Z,80.41
2022-10-01T22:35:10.880Z,80.53
2022-10-01T22:37:52.374Z,80.79
2022-10-01T22:40:30.374Z,80.72
2022-10-01T22:43:08.217Z,80.58
2022-10-01T22:45:53.836Z,80.81
2022-10-01T22:48:44.026Z,80.71
2022-10-01T22:51:31.144Z,79.80
2022-10-01T22:54:25.780Z,79.28
2022-10-01T22:57:07.529Z,78.81
2022-10-01T22:59:49.278Z,78.74
2022-10-01T23:02:27.819Z,78.57
2022-10-01T23:05:11.866Z,77.98
2022-10-01T23:07:55.437Z,78.10
2022-10-01T23:10:39.325Z,78.17
2022-10-01T23:13:22.191Z,78.19
2022-10-01T23:16:01.159Z,78.53
2022-10-01T23:18:40.981Z,78.29
2022-10-01T23:21:25.768Z,77.43
2022-10-01T23:24:05.212Z,77.53
2022-10-01T23:26:49.567Z,77.46
2022-10-01T23:29:42.824Z,77.28
2022-10-01T23:32:27.037Z,77.39
2022-10-01T23:35:02.725Z,77.01
2022-10-01T23:38:04.356Z,76.65
2022-10-01T23:40:37.921Z,76.85
2022-10-01T23:43:14.482Z,77.55
2022-10-01T23:45:49.350Z,77.69
2022-10-01T23:48:23.812Z,77.75
2022-10-01T23:51:01.210Z,77.83
2022-10-01T23:53:37.368Z,78.55
2022-10-01T23:56:24.387Z,78.40
2022-10-01T23:59:04.883Z,78.38
